Time;durP1;ratioP1;P1;durP2;ratioP2;P2;SDS_P1;SDS_P2;PMS_P1;PMS_P2;Temp;Humidity;BMP_temperature;BMP_pressure;BME280_temperature;BME280_humidity;BME280_pressure;Samples;Min_cycle;Max_cycle;Signal;HPM_P1;HPM_P2
2023/01/20 00:01:45;;;;;;;34.55;19.15;;;2.90;99.90;;;;;;4126188;28;20130;-68
2023/01/20 00:03:46;;;;;;;35.03;19.50;;;2.90;99.90;;;;;;4127947;28;20375;-68
2023/01/20 00:05:51;;;;;;;36.00;20.42;;;2.90;99.90;;;;;;4127289;28;20047;-68
2023/01/20 00:07:51;;;;;;;36.53;18.40;;;2.80;99.90;;;;;;4104407;28;20479;-69
2023/01/20 00:09:52;;;;;;;35.35;20.23;;;2.90;99.90;;;;;;4111696;28;20043;-69
2023/01/20 00:11:53;;;;;;;33.10;18.85;;;2.90;99.90;;;;;;4111667;28;20073;-69
2023/01/20 00:13:58;;;;;;;37.00;20.38;;;2.80;99.90;;;;;;4112209;28;20500;-69
2023/01/20 00:16:02;;;;;;;34.47;19.98;;;2.90;99.90;;;;;;4108986;28;20042;-68
2023/01/20 00:18:03;;;;;;;33.13;18.52;;;2.90;99.90;;;;;;4109023;28;20031;-68
2023/01/20 00:20:04;;;;;;;37.08;20.05;;;2.90;99.90;;;;;;4109986;28;20048;-69
2023/01/20 00:22:04;;;;;;;35.78;19.70;;;2.90;99.90;;;;;;4111665;28;20482;-68
2023/01/20 00:24:05;;;;;;;34.97;19.63;;;2.90;99.90;;;;;;4112205;28;20039;-68
2023/01/20 00:26:12;;;;;;;33.30;19.35;;;2.90;99.90;;;;;;4111409;28;20026;-68
2023/01/20 00:28:12;;;;;;;35.58;20.20;;;2.90;99.90;;;;;;4110031;28;20134;-68
2023/01/20 00:30:13;;;;;;;36.85;20.65;;;3.00;99.90;;;;;;4118069;28;20057;-68
2023/01/20 00:32:14;;;;;;;35.33;19.73;;;2.90;99.90;;;;;;4111601;28;20050;-68
2023/01/20 00:34:14;;;;;;;36.35;20.23;;;2.90;99.90;;;;;;4111990;28;20060;-70
2023/01/20 00:36:17;;;;;;;35.92;18.90;;;3.00;99.90;;;;;;4111436;28;20066;-69
2023/01/20 00:38:17;;;;;;;38.58;20.23;;;3.00;99.90;;;;;;4106920;28;20066;-69
2023/01/20 00:40:18;;;;;;;36.92;20.00;;;3.00;99.90;;;;;;4120521;28;20045;-69
2023/01/20 00:42:18;;;;;;;37.78;20.35;;;3.10;99.90;;;;;;4127729;28;20414;-68
2023/01/20 00:44:19;;;;;;;37.22;20.90;;;3.10;99.90;;;;;;4124215;28;20038;-69
2023/01/20 00:46:21;;;;;;;35.95;19.60;;;3.10;99.90;;;;;;4110773;28;20130;-69
2023/01/20 00:48:22;;;;;;;33.72;19.30;;;3.10;99.90;;;;;;4106945;28;20200;-70
2023/01/20 00:50:22;;;;;;;38.67;21.42;;;3.10;99.90;;;;;;4121848;28;20038;-70
2023/01/20 00:52:23;;;;;;;36.60;20.83;;;3.10;99.90;;;;;;4127537;28;20049;-69
2023/01/20 00:54:23;;;;;;;32.03;18.92;;;3.00;99.90;;;;;;4127779;28;20038;-68
2023/01/20 00:56:24;;;;;;;39.85;20.90;;;3.00;99.90;;;;;;4120378;28;20039;-69
2023/01/20 00:58:25;;;;;;;30.45;18.70;;;3.10;99.90;;;;;;4112696;28;20501;-69
2023/01/20 01:00:25;;;;;;;40.10;21.35;;;3.10;99.90;;;;;;4113025;28;20066;-69
2023/01/20 01:02:26;;;;;;;36.35;20.77;;;3.00;99.90;;;;;;4114401;28;20457;-69
2023/01/20 01:04:27;;;;;;;38.20;19.75;;;3.00;99.90;;;;;;4111080;28;20046;-69
2023/01/20 01:06:27;;;;;;;34.33;20.77;;;3.00;99.90;;;;;;4123107;28;20043;-69
2023/01/20 01:08:28;;;;;;;33.35;18.77;;;3.00;99.90;;;;;;4117239;28;20044;-69
2023/01/20 01:10:28;;;;;;;36.72;21.48;;;3.00;99.90;;;;;;4113617;28;20089;-69
2023/01/20 01:12:29;;;;;;;35.85;19.10;;;3.00;99.90;;;;;;4113454;28;20125;-69
2023/01/20 01:14:31;;;;;;;39.38;21.05;;;3.00;99.90;;;;;;4097220;28;20039;-69
2023/01/20 01:16:31;;;;;;;37.67;21.83;;;3.00;99.90;;;;;;4106648;28;20038;-69
2023/01/20 01:18:32;;;;;;;37.70;19.75;;;3.00;99.90;;;;;;4112729;28;20111;-69
2023/01/20 01:20:32;;;;;;;29.98;17.58;;;3.10;99.90;;;;;;4113542;28;20035;-69
2023/01/20 01:22:33;;;;;;;33.45;19.35;;;3.10;99.90;;;;;;4113928;28;20046;-69
2023/01/20 01:24:33;;;;;;;33.38;19.52;;;3.10;99.90;;;;;;4113762;28;20386;-69
2023/01/20 01:26:34;;;;;;;37.28;19.25;;;3.10;99.90;;;;;;4113171;28;20182;-69
2023/01/20 01:28:35;;;;;;;37.45;21.10;;;3.10;99.90;;;;;;4108335;28;20050;-69
2023/01/20 01:30:35;;;;;;;37.88;21.17;;;3.00;99.90;;;;;;4106276;28;20060;-69
2023/01/20 01:32:36;;;;;;;42.38;21.80;;;3.10;99.90;;;;;;4112016;28;20097;-69
2023/01/20 01:34:36;;;;;;;35.80;21.08;;;3.00;99.90;;;;;;4113920;28;20035;-69
2023/01/20 01:36:37;;;;;;;39.40;21.63;;;3.10;99.90;;;;;;4113228;28;20031;-69
2023/01/20 01:38:38;;;;;;;42.55;21.52;;;3.10;99.90;;;;;;4109848;28;20105;-69
2023/01/20 01:40:38;;;;;;;43.30;22.27;;;3.10;99.90;;;;;;4113239;28;20041;-70
2023/01/20 01:42:40;;;;;;;37.28;20.98;;;3.00;99.90;;;;;;4108516;28;20372;-69
2023/01/20 01:45:08;;;;;;;40.75;22.88;;;3.00;99.90;;;;;;4111118;28;20030;-69
2023/01/20 01:47:09;;;;;;;41.33;22.27;;;3.10;99.90;;;;;;4108992;28;20039;-69
2023/01/20 01:49:26;;;;;;;43.70;23.38;;;3.10;99.90;;;;;;4110731;28;20035;-70
2023/01/20 01:51:36;;;;;;;42.13;23.20;;;3.00;99.90;;;;;;4124391;28;20042;-69
2023/01/20 01:53:42;;;;;;;48.78;23.95;;;3.10;99.90;;;;;;4119884;28;20042;-69
2023/01/20 01:55:49;;;;;;;42.97;23.20;;;3.10;99.90;;;;;;4112805;28;20238;-70
2023/01/20 01:57:51;;;;;;;50.03;25.63;;;3.00;99.90;;;;;;4111190;28;20422;-70
2023/01/20 01:59:51;;;;;;;53.05;26.45;;;3.00;99.90;;;;;;4109513;28;20070;-69
2023/01/20 02:01:53;;;;;;;44.50;23.25;;;2.90;99.90;;;;;;4119590;28;20093;-69
2023/01/20 02:03:59;;;;;;;43.37;22.47;;;2.90;99.90;;;;;;4119174;28;20039;-69
2023/01/20 02:06:01;;;;;;;46.08;23.48;;;2.90;99.90;;;;;;4121686;28;20046;-70
2023/01/20 02:08:02;;;;;;;45.50;23.70;;;3.00;99.90;;;;;;4124862;28;20382;-69
2023/01/20 02:10:03;;;;;;;47.10;23.98;;;2.90;99.90;;;;;;4125644;28;20035;-70
2023/01/20 02:12:09;;;;;;;43.95;23.73;;;2.90;99.90;;;;;;4128624;28;20512;-69
2023/01/20 02:14:10;;;;;;;42.05;22.50;;;2.90;99.90;;;;;;4123188;28;20040;-69
2023/01/20 02:16:38;;;;;;;43.95;23.08;;;2.90;99.90;;;;;;4128186;28;20556;-70
2023/01/20 02:18:45;;;;;;;44.50;24.02;;;2.90;99.90;;;;;;4124726;28;20071;-69
2023/01/20 02:21:06;;;;;;;43.20;21.92;;;2.90;99.90;;;;;;4128487;28;20054;-69
2023/01/20 02:23:13;;;;;;;46.92;23.52;;;2.90;99.90;;;;;;4139258;28;20070;-70
2023/01/20 02:25:47;;;;;;;44.05;22.15;;;2.90;99.90;;;;;;4112138;28;20069;-70
2023/01/20 02:28:11;;;;;;;42.78;21.85;;;3.00;99.90;;;;;;4116549;28;20038;-70
2023/01/20 02:30:30;;;;;;;37.53;20.15;;;3.00;99.90;;;;;;4122343;28;20034;-70
2023/01/20 02:32:59;;;;;;;38.58;20.65;;;3.00;99.90;;;;;;4111676;28;20049;-69
2023/01/20 02:35:18;;;;;;;44.40;22.80;;;2.90;99.90;;;;;;4122455;28;20441;-70
2023/01/20 02:37:25;;;;;;;41.38;21.83;;;3.00;99.90;;;;;;4126366;28;20066;-70
2023/01/20 02:39:51;;;;;;;39.50;20.90;;;3.00;99.90;;;;;;4124344;28;20069;-70
2023/01/20 02:42:02;;;;;;;43.22;22.00;;;3.00;99.90;;;;;;4123345;28;20042;-70
2023/01/20 02:44:26;;;;;;;41.50;23.08;;;2.90;99.90;;;;;;4120362;28;20062;-69
2023/01/20 02:46:35;;;;;;;40.90;21.80;;;2.90;99.90;;;;;;4121085;28;20139;-70
2023/01/20 02:48:57;;;;;;;39.45;20.65;;;2.90;99.90;;;;;;4111578;28;20040;-69
2023/01/20 02:51:00;;;;;;;43.42;22.73;;;3.00;99.90;;;;;;4095361;28;20047;-70
2023/01/20 02:53:03;;;;;;;40.03;21.73;;;2.90;99.90;;;;;;4121993;28;20045;-69
2023/01/20 02:55:07;;;;;;;41.15;21.48;;;3.00;99.90;;;;;;4120086;28;20101;-71
2023/01/20 02:57:11;;;;;;;41.58;22.85;;;2.90;99.90;;;;;;4127276;28;20030;-69
2023/01/20 02:59:17;;;;;;;41.90;22.20;;;2.90;99.90;;;;;;4122572;28;20038;-70
2023/01/20 03:01:53;;;;;;;41.58;22.20;;;3.00;99.90;;;;;;4120561;28;20089;-70
2023/01/20 03:03:58;;;;;;;43.50;22.15;;;2.90;99.90;;;;;;4094844;28;20063;-70
2023/01/20 03:06:02;;;;;;;43.42;22.67;;;3.00;99.90;;;;;;4121363;28;20046;-69
2023/01/20 03:08:07;;;;;;;45.58;23.33;;;3.00;99.90;;;;;;4126605;28;20057;-69
2023/01/20 03:10:14;;;;;;;42.22;22.67;;;2.90;99.90;;;;;;4125945;28;20473;-70
2023/01/20 03:12:21;;;;;;;45.45;23.80;;;3.00;99.90;;;;;;4127612;28;20441;-70
2023/01/20 03:14:22;;;;;;;44.53;23.15;;;3.00;99.90;;;;;;4128557;28;20450;-70
2023/01/20 03:16:24;;;;;;;50.20;22.80;;;3.00;99.90;;;;;;4120832;28;20031;-69
2023/01/20 03:18:27;;;;;;;;;;;2.90;99.90;;;;;;4124748;28;20351;-70
2023/01/20 03:20:27;;;;;;;44.60;22.50;;;2.80;99.90;;;;;;4120943;28;20300;-70
2023/01/20 03:22:29;;;;;;;44.80;22.25;;;2.90;99.90;;;;;;4128048;28;20126;-70
2023/01/20 03:24:32;;;;;;;43.95;23.27;;;2.90;99.90;;;;;;4128319;28;20104;-70
2023/01/20 03:26:32;;;;;;;;;;;2.80;99.90;;;;;;4126527;28;20045;-70
2023/01/20 03:28:33;;;;;;;44.42;20.38;;;2.80;99.90;;;;;;4112148;28;19917;-70
2023/01/20 03:30:34;;;;;;;43.53;20.17;;;2.80;99.90;;;;;;4102919;28;20441;-70
2023/01/20 03:32:34;;;;;;;38.90;20.08;;;2.80;99.90;;;;;;4128415;28;20130;-70
2023/01/20 03:34:38;;;;;;;38.08;19.38;;;2.90;99.90;;;;;;4127764;28;20034;-70
2023/01/20 03:36:41;;;;;;;39.45;19.40;;;2.80;99.90;;;;;;4126967;28;20058;-69
2023/01/20 03:38:43;;;;;;;37.15;18.55;;;2.80;99.90;;;;;;4111596;28;20034;-70
2023/01/20 03:41:00;;;;;;;40.67;19.45;;;2.80;99.90;;;;;;4127940;28;20470;-70
2023/01/20 03:43:09;;;;;;;34.40;17.88;;;2.80;99.90;;;;;;4127339;28;20381;-69
2023/01/20 03:45:19;;;;;;;38.53;18.58;;;2.90;99.90;;;;;;4127782;28;20026;-70
2023/01/20 03:47:41;;;;;;;41.40;19.90;;;2.80;99.90;;;;;;4119121;28;20051;-70
2023/01/20 03:49:53;;;;;;;34.53;18.77;;;2.80;99.90;;;;;;4126857;28;20500;-70
2023/01/20 03:52:05;;;;;;;38.27;18.33;;;2.80;99.90;;;;;;4121791;28;20300;-70
2023/01/20 03:54:10;;;;;;;40.72;19.77;;;2.80;99.90;;;;;;4123095;28;20118;-70
2023/01/20 03:56:34;;;;;;;42.88;19.23;;;2.80;99.90;;;;;;4124264;28;20165;-69
2023/01/20 03:58:39;;;;;;;39.92;19.10;;;2.80;99.90;;;;;;4117006;28;20048;-70
2023/01/20 04:00:44;;;;;;;35.85;19.17;;;2.90;99.90;;;;;;4127238;28;20030;-70
2023/01/20 04:02:45;;;;;;;39.00;19.23;;;2.90;99.90;;;;;;4128519;28;20122;-70
2023/01/20 04:04:48;;;;;;;34.08;17.85;;;2.90;99.90;;;;;;4122266;28;20057;-70
2023/01/20 04:06:50;;;;;;;33.97;17.38;;;2.90;99.90;;;;;;4124431;28;20069;-70
2023/01/20 04:08:54;;;;;;;36.55;18.85;;;2.90;99.90;;;;;;4123453;28;20027;-70
2023/01/20 04:10:58;;;;;;;37.35;19.02;;;2.90;99.90;;;;;;4123175;28;20055;-69
2023/01/20 04:12:59;;;;;;;43.30;20.83;;;3.00;99.90;;;;;;4128362;28;20417;-70
2023/01/20 04:15:00;;;;;;;37.25;19.35;;;3.00;99.90;;;;;;4128173;28;20034;-70
2023/01/20 04:17:02;;;;;;;37.20;18.17;;;3.00;99.90;;;;;;4113114;28;20577;-70
2023/01/20 04:19:03;;;;;;;36.28;19.55;;;3.00;99.90;;;;;;4125866;28;20393;-70
2023/01/20 04:21:04;;;;;;;35.30;18.40;;;3.10;99.90;;;;;;4127555;28;20042;-70
2023/01/20 04:23:07;;;;;;;34.80;18.35;;;3.00;99.90;;;;;;4121451;28;20528;-70
2023/01/20 04:25:21;;;;;;;34.45;19.08;;;3.10;99.90;;;;;;4126601;28;20116;-71
2023/01/20 04:27:21;;;;;;;35.35;19.42;;;3.10;99.90;;;;;;4120283;28;20030;-70
2023/01/20 04:29:22;;;;;;;43.60;20.10;;;3.10;99.90;;;;;;4119320;28;20034;-69
2023/01/20 04:31:23;;;;;;;35.65;18.48;;;3.10;99.90;;;;;;4129201;28;20444;-70
2023/01/20 04:33:23;;;;;;;33.75;17.90;;;3.10;99.90;;;;;;4127101;28;20045;-70
2023/01/20 04:35:24;;;;;;;34.42;18.25;;;3.20;99.90;;;;;;4129955;28;20026;-70
2023/01/20 04:37:25;;;;;;;36.72;18.67;;;3.10;99.90;;;;;;4131974;28;20038;-70
2023/01/20 04:39:25;;;;;;;35.50;18.15;;;3.20;99.90;;;;;;4125109;28;20034;-70
2023/01/20 04:41:26;;;;;;;34.28;18.02;;;3.20;99.90;;;;;;4130333;28;20089;-69
2023/01/20 04:43:26;;;;;;;34.55;19.67;;;3.20;99.90;;;;;;4130682;28;20034;-69
2023/01/20 04:45:27;;;;;;;36.13;19.13;;;3.20;99.90;;;;;;4108261;28;20035;-69
2023/01/20 04:47:32;;;;;;;38.72;20.10;;;3.20;99.90;;;;;;4118310;28;20049;-70
2023/01/20 04:49:34;;;;;;;35.08;17.45;;;3.20;99.90;;;;;;4127072;28;20035;-70
2023/01/20 04:51:34;;;;;;;37.70;17.67;;;3.20;99.90;;;;;;4130108;28;20039;-70
2023/01/20 04:53:35;;;;;;;37.40;20.27;;;3.20;99.90;;;;;;4130867;28;20026;-70
2023/01/20 04:55:36;;;;;;;36.42;18.48;;;3.20;99.90;;;;;;4128714;28;20031;-70
2023/01/20 04:57:36;;;;;;;35.58;18.48;;;3.20;99.90;;;;;;4120637;28;20463;-70
2023/01/20 04:59:37;;;;;;;32.83;17.15;;;3.10;99.90;;;;;;4125977;28;20101;-70
2023/01/20 05:01:37;;;;;;;34.35;17.73;;;3.20;99.90;;;;;;4122524;28;20050;-70
2023/01/20 05:03:38;;;;;;;33.88;18.40;;;3.20;99.90;;;;;;4117392;28;20045;-70
2023/01/20 05:05:39;;;;;;;36.05;19.63;;;3.20;99.90;;;;;;4126563;28;20049;-70
2023/01/20 05:07:39;;;;;;;33.28;17.75;;;3.20;99.90;;;;;;4129506;28;20037;-70
2023/01/20 05:09:40;;;;;;;31.02;16.90;;;3.20;99.90;;;;;;4120915;28;20027;-70
2023/01/20 05:11:41;;;;;;;36.38;18.27;;;3.10;99.90;;;;;;4127129;28;20043;-70
2023/01/20 05:13:42;;;;;;;32.10;17.13;;;3.10;99.90;;;;;;4118380;28;20038;-70
2023/01/20 05:15:43;;;;;;;35.90;18.40;;;3.10;99.90;;;;;;4120396;28;20062;-70
2023/01/20 05:17:44;;;;;;;35.03;18.30;;;3.10;99.90;;;;;;4129071;28;20040;-70
2023/01/20 05:19:44;;;;;;;36.80;19.00;;;3.00;99.90;;;;;;4128756;28;20062;-70
2023/01/20 05:21:45;;;;;;;36.70;18.88;;;3.00;99.90;;;;;;4119562;28;20049;-70
2023/01/20 05:23:45;;;;;;;36.05;17.83;;;3.00;99.90;;;;;;4124038;28;20126;-69
2023/01/20 05:25:50;;;;;;;36.78;18.13;;;3.00;99.90;;;;;;4121104;28;20030;-69
2023/01/20 05:27:51;;;;;;;38.42;17.88;;;2.90;99.90;;;;;;4119945;28;20035;-69
2023/01/20 05:29:51;;;;;;;35.95;17.80;;;2.90;99.90;;;;;;4124871;28;20075;-70
2023/01/20 05:31:52;;;;;;;33.55;16.92;;;2.90;99.90;;;;;;4119877;28;20046;-69
2023/01/20 05:33:52;;;;;;;35.17;17.23;;;2.80;99.90;;;;;;4113937;28;20556;-70
2023/01/20 05:35:53;;;;;;;32.33;15.50;;;2.80;99.90;;;;;;4129524;28;20041;-70
2023/01/20 05:37:54;;;;;;;30.67;16.08;;;2.90;99.90;;;;;;4119591;28;20121;-70
2023/01/20 05:39:54;;;;;;;32.80;15.40;;;2.90;99.90;;;;;;4126264;28;20031;-70
2023/01/20 05:41:55;;;;;;;31.15;15.70;;;2.90;99.90;;;;;;4120661;28;21287;-70
2023/01/20 05:43:55;;;;;;;34.22;16.92;;;2.90;99.90;;;;;;4116273;28;20066;-70
2023/01/20 05:45:56;;;;;;;32.53;16.98;;;2.90;99.90;;;;;;4115727;28;20125;-70
2023/01/20 05:47:58;;;;;;;30.80;16.08;;;2.90;99.90;;;;;;4123667;28;20038;-69
2023/01/20 05:49:59;;;;;;;29.17;15.30;;;2.90;99.90;;;;;;4122550;28;20126;-69
2023/01/20 05:51:59;;;;;;;34.28;16.77;;;2.90;99.90;;;;;;4122601;28;20097;-70
2023/01/20 05:54:00;;;;;;;32.10;16.65;;;2.90;99.90;;;;;;4122394;28;20036;-70
2023/01/20 05:56:03;;;;;;;31.75;15.50;;;3.00;99.90;;;;;;4122035;28;20041;-69
2023/01/20 05:58:04;;;;;;;33.03;16.90;;;2.90;99.90;;;;;;4129909;28;20470;-70
2023/01/20 06:00:06;;;;;;;34.63;17.25;;;3.00;99.90;;;;;;4124358;28;20038;-71
2023/01/20 06:02:06;;;;;;;36.83;17.80;;;3.00;99.90;;;;;;4121297;28;20034;-69
2023/01/20 06:04:07;;;;;;;32.10;16.52;;;3.00;99.90;;;;;;4127864;28;20736;-69
2023/01/20 06:06:13;;;;;;;29.10;15.70;;;2.90;99.90;;;;;;4117534;28;20387;-69
2023/01/20 06:08:13;;;;;;;32.22;16.73;;;2.90;99.90;;;;;;4124931;28;20038;-69
2023/01/20 06:10:15;;;;;;;35.15;18.00;;;3.00;99.90;;;;;;4123847;28;20046;-70
2023/01/20 06:12:16;;;;;;;29.50;14.82;;;2.90;99.90;;;;;;4119388;28;20405;-70
2023/01/20 06:14:16;;;;;;;31.70;16.23;;;3.00;99.90;;;;;;4121274;28;20125;-70
2023/01/20 06:16:18;;;;;;;35.60;17.67;;;2.90;99.90;;;;;;4115510;28;20038;-70
2023/01/20 06:18:20;;;;;;;35.50;17.20;;;2.90;99.90;;;;;;4119956;28;20038;-69
2023/01/20 06:20:20;;;;;;;28.00;15.53;;;3.00;99.90;;;;;;4115060;28;20305;-69
2023/01/20 06:22:21;;;;;;;36.72;17.40;;;3.00;99.90;;;;;;4107702;28;20049;-70
2023/01/20 06:24:21;;;;;;;33.22;18.35;;;2.90;99.90;;;;;;4112083;28;20034;-70
2023/01/20 06:26:22;;;;;;;34.78;17.80;;;2.90;99.90;;;;;;4115370;28;20474;-72
2023/01/20 06:28:23;;;;;;;35.10;18.58;;;2.90;99.90;;;;;;4120692;28;20602;-70
2023/01/20 06:30:23;;;;;;;36.38;18.20;;;2.80;99.90;;;;;;4120794;28;20403;-69
2023/01/20 06:32:24;;;;;;;32.35;17.58;;;2.80;99.90;;;;;;4113957;28;20454;-69
2023/01/20 06:34:24;;;;;;;33.03;17.88;;;2.80;99.90;;;;;;4122947;28;20469;-70
2023/01/20 06:36:25;;;;;;;29.65;16.02;;;2.80;99.90;;;;;;4122942;28;20030;-69
2023/01/20 06:38:29;;;;;;;33.30;17.85;;;2.80;99.90;;;;;;4119743;28;20165;-69
2023/01/20 06:40:30;;;;;;;33.67;18.55;;;2.90;99.90;;;;;;4117719;28;20465;-69
2023/01/20 06:42:31;;;;;;;35.58;18.67;;;2.90;99.90;;;;;;4121706;28;20038;-69
2023/01/20 06:44:32;;;;;;;35.97;19.10;;;2.90;99.90;;;;;;4113386;28;20043;-73
2023/01/20 06:46:33;;;;;;;35.63;19.30;;;2.90;99.90;;;;;;4118961;28;20114;-70
2023/01/20 06:48:35;;;;;;;38.13;18.73;;;2.90;99.90;;;;;;4122877;28;20493;-70
2023/01/20 06:50:35;;;;;;;43.03;21.77;;;3.00;99.90;;;;;;4124300;28;20039;-69
2023/01/20 06:52:36;;;;;;;35.88;19.60;;;2.90;99.90;;;;;;4102183;28;20053;-69
2023/01/20 06:54:36;;;;;;;39.63;20.92;;;2.90;99.90;;;;;;4119104;28;20030;-69
2023/01/20 06:56:37;;;;;;;38.75;20.92;;;2.90;99.90;;;;;;4115065;28;20031;-69
2023/01/20 06:58:38;;;;;;;41.20;21.33;;;2.90;99.90;;;;;;4118225;28;20436;-70
2023/01/20 07:00:39;;;;;;;42.65;23.00;;;2.90;99.90;;;;;;4113759;28;20057;-70
2023/01/20 07:02:40;;;;;;;40.90;23.17;;;2.90;99.90;;;;;;4121316;28;20077;-70
2023/01/20 07:04:41;;;;;;;47.05;23.80;;;2.90;99.90;;;;;;4117919;28;20043;-69
2023/01/20 07:06:42;;;;;;;42.67;23.40;;;2.90;99.90;;;;;;4105939;28;20051;-69
2023/01/20 07:08:43;;;;;;;39.58;22.40;;;2.90;99.90;;;;;;4099557;28;20446;-68
2023/01/20 07:10:44;;;;;;;39.83;21.58;;;2.90;99.90;;;;;;4100342;28;20075;-69
2023/01/20 07:12:45;;;;;;;36.10;18.80;;;2.80;99.90;;;;;;4100665;28;20039;-69
2023/01/20 07:14:45;;;;;;;34.53;19.80;;;2.80;99.90;;;;;;4103332;28;20505;-69
2023/01/20 07:16:46;;;;;;;36.47;19.35;;;2.80;99.90;;;;;;4107286;28;20057;-69
2023/01/20 07:18:48;;;;;;;39.30;20.77;;;2.80;99.90;;;;;;4095339;28;20094;-69
2023/01/20 07:20:55;;;;;;;36.55;19.50;;;2.80;99.90;;;;;;4107748;28;20563;-69
2023/01/20 07:22:58;;;;;;;36.55;19.25;;;2.70;99.90;;;;;;4107944;28;20038;-69
2023/01/20 07:24:59;;;;;;;28.83;17.40;;;2.80;99.90;;;;;;4092075;28;20105;-69
2023/01/20 07:27:00;;;;;;;31.55;17.63;;;2.80;99.90;;;;;;4105673;28;20035;-69
2023/01/20 07:29:00;;;;;;;36.00;19.25;;;2.80;99.90;;;;;;4106770;28;20042;-69
2023/01/20 07:31:09;;;;;;;35.70;18.25;;;2.80;99.90;;;;;;4105783;28;20031;-69
2023/01/20 07:33:10;;;;;;;36.55;19.20;;;2.80;99.90;;;;;;4101945;28;20043;-69
2023/01/20 07:35:10;;;;;;;32.95;18.00;;;2.80;99.90;;;;;;4105243;28;20046;-70
2023/01/20 07:37:11;;;;;;;39.20;19.63;;;2.70;99.90;;;;;;4107580;28;20039;-69
2023/01/20 07:39:13;;;;;;;40.00;19.98;;;2.70;99.90;;;;;;4107932;28;20058;-69
2023/01/20 07:41:17;;;;;;;38.15;19.95;;;2.70;99.90;;;;;;4106200;28;20073;-69
2023/01/20 07:43:17;;;;;;;33.72;18.63;;;2.70;99.90;;;;;;4104114;28;20047;-69
2023/01/20 07:45:18;;;;;;;33.17;18.33;;;2.60;99.90;;;;;;4106877;28;20046;-69
2023/01/20 07:47:18;;;;;;;36.17;19.00;;;2.60;99.90;;;;;;4099028;28;20047;-69
2023/01/20 07:49:19;;;;;;;32.95;17.40;;;2.60;99.90;;;;;;4107181;28;20031;-69
2023/01/20 07:51:20;;;;;;;35.00;18.63;;;2.70;99.90;;;;;;4099304;28;20390;-69
2023/01/20 07:53:20;;;;;;;31.83;17.33;;;2.60;99.90;;;;;;4095963;28;20134;-69
2023/01/20 07:55:21;;;;;;;37.25;19.50;;;2.70;99.90;;;;;;4105527;28;20101;-69
2023/01/20 07:57:21;;;;;;;37.25;20.45;;;2.70;99.90;;;;;;4099254;28;20138;-69
2023/01/20 07:59:22;;;;;;;35.08;18.30;;;2.70;99.90;;;;;;4097733;28;20046;-69
2023/01/20 08:01:28;;;;;;;35.65;19.33;;;2.70;99.90;;;;;;4096514;28;20100;-69
2023/01/20 08:03:29;;;;;;;37.72;18.95;;;2.70;99.90;;;;;;4100445;28;20522;-70
2023/01/20 08:05:31;;;;;;;34.78;18.05;;;2.70;99.90;;;;;;4080162;28;20066;-70
2023/01/20 08:07:32;;;;;;;35.83;19.27;;;2.70;99.90;;;;;;4098406;28;20039;-69
2023/01/20 08:09:33;;;;;;;38.05;18.63;;;2.70;99.90;;;;;;4106571;28;20034;-69
2023/01/20 08:11:33;;;;;;;37.58;18.58;;;2.70;99.90;;;;;;4105103;28;20123;-69
2023/01/20 08:13:34;;;;;;;35.78;18.65;;;2.70;99.90;;;;;;4096855;28;20058;-69
2023/01/20 08:15:34;;;;;;;34.47;17.52;;;2.60;99.90;;;;;;4104349;28;20486;-69
2023/01/20 08:17:35;;;;;;;33.88;18.77;;;2.70;99.90;;;;;;4102579;28;20113;-70
2023/01/20 08:19:35;;;;;;;38.83;19.38;;;2.60;99.90;;;;;;4103943;28;20027;-69
2023/01/20 08:21:36;;;;;;;32.50;17.85;;;2.70;99.90;;;;;;4104985;28;20117;-69
2023/01/20 08:23:37;;;;;;;36.70;19.02;;;2.70;99.90;;;;;;4106285;28;20043;-69
2023/01/20 08:25:37;;;;;;;37.90;20.15;;;2.80;99.90;;;;;;4103910;28;20574;-69
2023/01/20 08:27:38;;;;;;;31.85;17.13;;;2.80;99.90;;;;;;4103738;28;20391;-69
2023/01/20 08:29:39;;;;;;;31.70;17.90;;;2.80;99.90;;;;;;4107145;28;20035;-69
2023/01/20 08:31:40;;;;;;;29.45;16.88;;;2.80;99.90;;;;;;4100507;28;20050;-69
2023/01/20 08:33:41;;;;;;;39.90;18.95;;;2.80;99.90;;;;;;4104587;28;20078;-69
2023/01/20 08:35:41;;;;;;;38.35;19.92;;;2.80;99.90;;;;;;4106462;28;20034;-69
2023/01/20 08:37:42;;;;;;;36.53;19.70;;;2.80;99.90;;;;;;4103609;28;20073;-69
2023/01/20 08:39:43;;;;;;;34.35;17.67;;;2.90;99.90;;;;;;4106374;28;20043;-69
2023/01/20 08:41:45;;;;;;;30.42;16.42;;;2.90;99.90;;;;;;4104004;28;20046;-69
2023/01/20 08:43:46;;;;;;;37.33;19.17;;;2.90;99.90;;;;;;4104272;28;20047;-69
2023/01/20 08:45:56;;;;;;;35.78;18.98;;;2.90;99.90;;;;;;4102438;28;20486;-69
2023/01/20 08:47:57;;;;;;;33.00;19.08;;;2.90;99.90;;;;;;4109545;28;20117;-69
2023/01/20 08:49:57;;;;;;;33.50;17.80;;;2.80;99.90;;;;;;4105823;28;20035;-69
2023/01/20 08:51:58;;;;;;;34.80;18.42;;;2.70;99.90;;;;;;4109166;28;20047;-69
2023/01/20 08:53:59;;;;;;;37.15;20.02;;;2.80;99.90;;;;;;4099079;28;20086;-69
2023/01/20 08:56:02;;;;;;;33.27;19.27;;;2.80;99.90;;;;;;4109283;28;20086;-70
2023/01/20 08:58:02;;;;;;;31.30;16.48;;;2.80;99.90;;;;;;4100385;28;20043;-69
2023/01/20 09:00:06;;;;;;;32.67;18.13;;;2.80;99.90;;;;;;4110061;28;20402;-69
2023/01/20 09:02:09;;;;;;;32.25;17.08;;;2.80;99.90;;;;;;4105527;28;20031;-69
2023/01/20 09:04:10;;;;;;;32.40;16.77;;;2.80;99.90;;;;;;4104961;28;20039;-73
2023/01/20 09:06:11;;;;;;;32.85;17.55;;;2.90;99.90;;;;;;4109654;28;20058;-69
2023/01/20 09:08:12;;;;;;;35.05;17.50;;;2.90;99.90;;;;;;4109160;28;20039;-69
2023/01/20 09:10:13;;;;;;;33.70;16.85;;;2.90;99.90;;;;;;4110388;28;20042;-69
2023/01/20 09:12:13;;;;;;;30.05;16.35;;;3.00;99.90;;;;;;4109249;28;20398;-69
2023/01/20 09:14:14;;;;;;;32.63;17.25;;;3.00;99.90;;;;;;4111761;28;20049;-69
2023/01/20 09:16:16;;;;;;;35.78;19.13;;;3.00;99.90;;;;;;4116631;28;20469;-68
2023/01/20 09:18:17;;;;;;;;;;;3.00;99.90;;;;;;4113761;28;20042;-69
2023/01/20 09:20:18;;;;;;;29.27;17.05;;;3.00;99.90;;;;;;4088909;28;20461;-69
2023/01/20 09:22:18;;;;;;;34.45;18.30;;;2.90;99.90;;;;;;4119595;28;20034;-69
2023/01/20 09:24:19;;;;;;;33.88;18.23;;;3.00;99.90;;;;;;4117558;28;20046;-69
2023/01/20 09:26:20;;;;;;;34.28;17.70;;;2.90;99.90;;;;;;4117035;28;20117;-69
2023/01/20 09:28:20;;;;;;;31.13;17.40;;;2.90;99.90;;;;;;4122480;28;20069;-69
2023/01/20 09:30:21;;;;;;;32.30;17.98;;;2.90;99.90;;;;;;4115666;28;20097;-69
2023/01/20 09:32:21;;;;;;;29.48;17.05;;;3.00;99.90;;;;;;4110132;28;20039;-69
2023/01/20 09:34:23;;;;;;;34.60;17.58;;;3.00;99.90;;;;;;4120554;28;20046;-69
2023/01/20 09:36:25;;;;;;;31.92;18.15;;;3.00;99.90;;;;;;4118528;28;20371;-69
2023/01/20 09:43:55;;;;;;;30.08;16.80;;;3.00;99.90;;;;;;4104119;28;20044;-69
2023/01/20 09:46:04;;;;;;;27.83;15.85;;;3.10;99.90;;;;;;4099798;28;20051;-69
2023/01/20 09:48:14;;;;;;;29.17;17.15;;;3.10;99.90;;;;;;4102905;28;20058;-68
2023/01/20 09:53:38;;;;;;;28.15;16.88;;;3.10;99.90;;;;;;4108192;28;20047;-69
2023/01/20 09:55:52;;;;;;;32.08;17.33;;;3.10;99.90;;;;;;4096231;28;20034;-68
2023/01/20 09:58:06;;;;;;;31.80;17.38;;;3.00;99.90;;;;;;4103003;28;20039;-68
2023/01/20 10:00:20;;;;;;;31.15;17.75;;;3.00;99.90;;;;;;4102485;28;20086;-70
2023/01/20 10:02:25;;;;;;;30.88;17.02;;;3.10;99.90;;;;;;4103783;28;20043;-69
2023/01/20 10:04:40;;;;;;;35.67;19.40;;;3.10;99.90;;;;;;4109547;28;20445;-69
2023/01/20 10:07:08;;;;;;;32.85;17.88;;;3.10;99.90;;;;;;4108285;28;20092;-69
2023/01/20 10:09:20;;;;;;;35.30;18.25;;;3.10;99.90;;;;;;4100593;28;20129;-69
2023/01/20 10:11:23;;;;;;;33.72;18.00;;;3.10;99.90;;;;;;4107071;28;20563;-70
2023/01/20 10:13:31;;;;;;;29.90;16.85;;;3.10;99.90;;;;;;4107282;28;20046;-70
2023/01/20 10:15:36;;;;;;;30.83;17.10;;;3.10;99.90;;;;;;4107115;28;20026;-69
2023/01/20 10:17:55;;;;;;;37.72;18.95;;;3.20;99.90;;;;;;4107325;28;20035;-70
2023/01/20 10:20:24;;;;;;;31.92;17.48;;;3.20;99.90;;;;;;4108133;28;20063;-69
2023/01/20 10:22:31;;;;;;;28.80;16.67;;;3.30;99.90;;;;;;4108410;28;20042;-69
2023/01/20 10:24:35;;;;;;;31.52;18.00;;;3.20;99.90;;;;;;4109838;28;20043;-69
2023/01/20 10:26:43;;;;;;;31.60;18.38;;;3.30;99.90;;;;;;4108657;28;20039;-69
2023/01/20 10:28:54;;;;;;;27.83;16.48;;;3.30;99.90;;;;;;4108384;28;20042;-69
2023/01/20 10:31:01;;;;;;;28.90;16.50;;;3.30;99.90;;;;;;4108921;28;20126;-70
2023/01/20 10:33:10;;;;;;;25.85;15.35;;;3.40;99.90;;;;;;4109044;28;20035;-69
2023/01/20 10:35:18;;;;;;;26.27;16.10;;;3.30;99.90;;;;;;4106538;28;20055;-70
2023/01/20 10:37:20;;;;;;;31.98;17.08;;;3.30;99.90;;;;;;4107077;28;20039;-69
2023/01/20 10:39:39;;;;;;;27.52;15.85;;;3.40;99.90;;;;;;4109099;28;20049;-69
2023/01/20 10:41:45;;;;;;;24.90;14.05;;;3.40;99.90;;;;;;4104304;28;20379;-69
2023/01/20 10:43:47;;;;;;;27.48;16.02;;;3.40;99.90;;;;;;4106910;28;20043;-69
2023/01/20 10:45:53;;;;;;;30.35;15.73;;;3.40;99.90;;;;;;4108040;28;20027;-69